Archival Weather

Salzburg

Salzburg, Austria (LOWS)

Report from: Thursday, September 21, 2023 11:50 PM CEST
Current time: Friday, July 19, 2024 4:38 AM CEST

Current weather – Weather history – Daily summaries
Weather forecast

Temperature19.0°C (66.2°F)
Dew point11.0°C (51.8°F)
Winds 10 kts (5.1 m/s, 11.5 mph) Vrb
Winds variableWinds variable from Southeast (130°) to South-Southwest (200°)
Visibility6.2 mi. (10 km)
Altimeter29.56 in.Hg (1001 mB)
Relative humidity60 %
Density altitude1,070 ft. (326 m)
Remarks Fully automated report
Flight conditions Visual Meteorological Conditions
Raw dataLOWS 212150Z AUTO 16010KT 130V200 9999 NSC 19/11 Q1001
An error has occurred. This application may no longer respond until reloaded. Reload 🗙